Leitchfield, Kentucky
Current Conditions -  °F | °C
As of 3:58 PM on Friday 19 Dec 2014 (Local Time) from KFTK Reporting Station
Clear Clear  
Wind Chill: 30°   Ceiling: Unl
Heat Index: 34°   Visibility: 10mi
Dew Point: 24°   Wind: 5mph
Humidity: 68%   Direction: 20°NNE
Pressure: 30.25"   Gusts: NA
Location:  37.48°N, 86.29°W
Report Text: KFTK 192158Z AUTO 02004KT 10SM CLR 01/M04 A3025 RMK AO2 SLP254 T00101043
Loading
Personal Weather Stations






























Interactive Weather Map New forecast layout! Learn more

10-Day Weather Forecast

Advertisements
Track Severe Weather on mobile